createdAt,value
2023-02-11T12:00:44.483Z,6.67
2023-02-11T12:03:44.778Z,6.22
2023-02-11T12:06:26.945Z,6.70
2023-02-11T12:09:08.142Z,6.28
2023-02-11T12:11:53.563Z,6.53
2023-02-11T12:14:33.245Z,8.32
2023-02-11T12:17:08.555Z,8.10
2023-02-11T12:20:05.693Z,6.38
2023-02-11T12:22:44.931Z,5.05
2023-02-11T12:25:27.867Z,6.63
2023-02-11T12:28:08.296Z,5.35
2023-02-11T12:30:57.385Z,5.00
2023-02-11T12:33:44.759Z,5.63
2023-02-11T12:36:24.632Z,5.25
2023-02-11T12:39:02.773Z,4.18
2023-02-11T12:42:10.763Z,4.32
2023-02-11T12:47:19.692Z,4.68
2023-02-11T12:50:09.953Z,4.45
2023-02-11T12:52:56.862Z,7.28
2023-02-11T12:55:27.249Z,8.13
2023-02-11T12:57:59.718Z,4.90
2023-02-11T13:00:39.370Z,8.80
2023-02-11T13:03:14.572Z,7.00
2023-02-11T13:05:50.210Z,4.97
2023-02-11T13:08:26.799Z,4.97
2023-02-11T13:10:58.356Z,4.72
2023-02-11T13:13:31.029Z,6.03
2023-02-11T13:16:06.341Z,5.38
2023-02-11T13:18:50.192Z,6.03
2023-02-11T13:21:33.721Z,4.85
2023-02-11T13:24:09.826Z,5.82
2023-02-11T13:26:46.123Z,6.45
2023-02-11T13:29:29.494Z,4.13
2023-02-11T13:32:07.897Z,3.92
2023-02-11T13:35:26.323Z,3.83
2023-02-11T13:37:56.330Z,3.65
2023-02-11T13:40:26.297Z,13.18
2023-02-11T13:42:56.646Z,9.90
2023-02-11T13:45:32.155Z,4.28
2023-02-11T13:48:03.920Z,3.60
2023-02-11T13:50:37.236Z,3.88
2023-02-11T13:53:09.290Z,4.28
2023-02-11T13:55:38.407Z,9.02
2023-02-11T13:58:34.465Z,8.57
2023-02-11T14:01:02.920Z,4.05
2023-02-11T14:03:56.561Z,5.00
2023-02-11T14:06:46.546Z,4.18
2023-02-11T14:09:45.779Z,3.83
2023-02-11T14:12:34.666Z,2.72
2023-02-11T14:15:21.924Z,3.75
2023-02-11T14:20:36.949Z,4.22
2023-02-11T14:23:06.344Z,3.17
2023-02-11T14:25:39.378Z,2.78
2023-02-11T14:28:15.708Z,2.90
2023-02-11T14:31:00.159Z,3.53
2023-02-11T14:33:56.967Z,2.28
2023-02-11T14:36:52.074Z,3.03
2023-02-11T14:39:34.732Z,6.45
2023-02-11T14:42:05.149Z,3.97
2023-02-11T14:44:34.684Z,3.15
2023-02-11T14:47:02.818Z,3.63
2023-02-11T14:49:34.049Z,4.65
2023-02-11T14:52:07.813Z,4.43
2023-02-11T14:54:36.419Z,4.10
2023-02-11T14:57:13.854Z,3.72
2023-02-11T14:59:55.753Z,5.50
2023-02-11T15:02:28.649Z,6.43
2023-02-11T15:05:17.278Z,4.70
2023-02-11T15:07:48.121Z,5.82
2023-02-11T15:10:21.445Z,5.20
2023-02-11T15:12:51.507Z,4.70
2023-02-11T15:15:19.692Z,6.43
2023-02-11T15:17:47.969Z,4.80
2023-02-11T15:20:22.355Z,6.05
2023-02-11T15:22:55.251Z,8.55
2023-02-11T15:25:24.250Z,5.93
2023-02-11T15:27:56.947Z,6.50
2023-02-11T15:30:34.376Z,8.23
2023-02-11T15:33:05.692Z,8.52
2023-02-11T15:35:36.858Z,10.10
2023-02-11T15:38:05.361Z,6.30
2023-02-11T15:40:34.788Z,6.93
2023-02-11T15:43:06.180Z,7.75
2023-02-11T15:45:53.440Z,10.15
2023-02-11T15:50:54.454Z,8.35
2023-02-11T15:53:26.768Z,8.30
2023-02-11T15:56:03.166Z,9.95
2023-02-11T15:58:37.878Z,11.88
2023-02-11T16:01:07.287Z,11.05
2023-02-11T16:03:35.526Z,10.73
2023-02-11T16:06:21.477Z,12.02
2023-02-11T16:09:01.098Z,11.10
2023-02-11T16:11:31.473Z,11.07
2023-02-11T16:14:03.232Z,12.18
2023-02-11T16:16:34.645Z,11.40
2023-02-11T16:19:05.799Z,13.32
2023-02-11T16:21:39.545Z,9.70
2023-02-11T16:24:18.463Z,13.70
2023-02-11T16:26:50.090Z,12.82
2023-02-11T16:29:24.332Z,8.75
2023-02-11T16:31:54.672Z,8.88
2023-02-11T16:34:25.256Z,9.32
2023-02-11T16:36:53.958Z,9.18
2023-02-11T16:39:22.933Z,11.07
2023-02-11T16:41:52.718Z,9.32
2023-02-11T16:44:27.587Z,13.13
2023-02-11T16:46:55.933Z,13.15
2023-02-11T16:49:27.666Z,13.40
2023-02-11T16:52:03.541Z,25.80
2023-02-11T16:54:31.868Z,19.00
2023-02-11T16:56:59.726Z,20.40
2023-02-11T16:59:29.205Z,12.57
2023-02-11T17:01:58.389Z,16.95
2023-02-11T17:04:28.593Z,24.60
2023-02-11T17:06:58.353Z,13.82
2023-02-11T17:09:30.795Z,14.70
2023-02-11T17:11:59.163Z,17.13
2023-02-11T17:14:28.952Z,19.17
2023-02-11T17:16:57.687Z,22.90
2023-02-11T17:19:25.686Z,21.45
2023-02-11T17:21:54.278Z,215.10
2023-02-11T17:24:23.238Z,145.73
2023-02-11T17:26:51.436Z,92.60
2023-02-11T17:29:21.178Z,26.20
2023-02-11T17:31:52.138Z,36.85
2023-02-11T17:34:21.235Z,24.95
2023-02-11T17:36:49.570Z,21.67
2023-02-11T17:39:19.491Z,17.48
2023-02-11T17:41:47.483Z,15.57
2023-02-11T17:44:25.612Z,18.38
2023-02-11T17:46:55.088Z,13.98
2023-02-11T17:49:23.005Z,16.23
2023-02-11T17:51:51.134Z,14.43
2023-02-11T17:54:20.344Z,15.35
2023-02-11T17:56:51.084Z,15.52
2023-02-11T17:59:19.953Z,19.42
2023-02-11T18:01:48.054Z,17.05
2023-02-11T18:04:19.639Z,14.43
2023-02-11T18:06:47.729Z,17.05
2023-02-11T18:09:15.686Z,14.82
2023-02-11T18:11:43.953Z,19.35
2023-02-11T18:14:12.359Z,21.23
2023-02-11T18:16:43.368Z,22.80
2023-02-11T18:19:12.118Z,27.25
2023-02-11T18:21:41.830Z,27.70
2023-02-11T18:24:10.450Z,32.40
2023-02-11T18:26:38.568Z,39.65
2023-02-11T18:29:07.381Z,46.42
2023-02-11T18:31:41.581Z,44.33
2023-02-11T18:34:11.101Z,45.15
2023-02-11T18:36:40.657Z,49.70
2023-02-11T18:39:08.767Z,51.15
2023-02-11T18:41:36.906Z,46.55
2023-02-11T18:44:05.371Z,48.65
2023-02-11T18:46:33.511Z,45.75
2023-02-11T18:49:01.557Z,40.42
2023-02-11T18:51:32.800Z,59.08
2023-02-11T18:54:02.394Z,57.70
2023-02-11T18:56:30.346Z,68.95
2023-02-11T18:59:01.410Z,71.80
2023-02-11T19:01:31.346Z,76.90
2023-02-11T19:04:03.236Z,77.88
2023-02-11T19:06:34.265Z,66.38
2023-02-11T19:09:06.454Z,66.07
2023-02-11T19:11:54.593Z,64.75
2023-02-11T19:14:24.568Z,63.85
2023-02-11T19:16:54.819Z,55.08
2023-02-11T19:19:24.245Z,54.60
2023-02-11T19:21:52.374Z,62.33
2023-02-11T19:24:22.836Z,59.85
2023-02-11T19:26:52.853Z,56.85
2023-02-11T19:29:21.175Z,58.33
2023-02-11T19:31:50.258Z,56.13
2023-02-11T19:34:20.261Z,47.45
2023-02-11T19:36:49.315Z,43.33
2023-02-11T19:39:17.499Z,48.08
2023-02-11T19:41:47.554Z,47.25
2023-02-11T19:44:16.715Z,69.80
2023-02-11T19:46:48.641Z,73.18
2023-02-11T19:49:24.991Z,65.13
2023-02-11T19:51:55.595Z,53.20
2023-02-11T19:54:24.729Z,44.38
2023-02-11T19:56:54.788Z,50.40
2023-02-11T19:59:23.417Z,42.95
2023-02-11T20:01:53.329Z,43.30
2023-02-11T20:04:21.579Z,42.58
2023-02-11T20:06:49.780Z,43.90
2023-02-11T20:09:17.990Z,45.40
2023-02-11T20:11:46.362Z,43.15
2023-02-11T20:14:16.361Z,40.92
2023-02-11T20:16:49.163Z,38.55
2023-02-11T20:19:19.755Z,38.05
2023-02-11T20:21:49.114Z,33.75
2023-02-11T20:24:20.144Z,35.63
2023-02-11T20:26:48.887Z,34.88
2023-02-11T20:29:19.083Z,27.67
2023-02-11T20:31:48.640Z,24.30
2023-02-11T20:34:17.988Z,25.63
2023-02-11T20:36:52.567Z,26.70
2023-02-11T20:39:22.507Z,27.00
2023-02-11T20:41:51.558Z,28.83
2023-02-11T20:44:23.180Z,23.73
2023-02-11T20:46:54.120Z,25.20
2023-02-11T20:49:25.465Z,27.63
2023-02-11T20:51:54.359Z,22.13
2023-02-11T20:54:23.827Z,26.50
2023-02-11T20:56:53.925Z,29.65
2023-02-11T20:59:26.591Z,36.03
2023-02-11T21:01:56.459Z,36.10
2023-02-11T21:04:26.180Z,27.95
2023-02-11T21:06:56.092Z,34.85
2023-02-11T21:09:25.728Z,26.08
2023-02-11T21:11:54.925Z,31.38
2023-02-11T21:14:26.137Z,27.55
2023-02-11T21:16:54.430Z,26.27
2023-02-11T21:19:22.466Z,26.42
2023-02-11T21:21:50.452Z,27.38
2023-02-11T21:24:18.394Z,25.27
2023-02-11T21:26:46.260Z,25.77
2023-02-11T21:29:14.467Z,22.83
2023-02-11T21:31:44.273Z,19.75
2023-02-11T21:34:12.340Z,17.67
2023-02-11T21:36:40.332Z,20.52
2023-02-11T21:39:09.090Z,18.52
2023-02-11T21:41:36.986Z,18.13
2023-02-11T21:44:04.873Z,15.02
2023-02-11T21:46:32.818Z,16.25
2023-02-11T21:49:02.172Z,15.98
2023-02-11T21:51:29.953Z,22.73
2023-02-11T21:53:59.318Z,19.55
2023-02-11T21:56:28.315Z,22.45
2023-02-11T21:58:58.319Z,20.55
2023-02-11T22:01:28.589Z,21.83
2023-02-11T22:04:07.531Z,25.17
2023-02-11T22:06:36.039Z,22.23
2023-02-11T22:09:06.812Z,23.48
2023-02-11T22:11:35.097Z,21.27
2023-02-11T22:14:03.289Z,19.15
2023-02-11T22:16:34.779Z,17.45
2023-02-11T22:19:02.950Z,19.70
2023-02-11T22:21:32.340Z,17.38
2023-02-11T22:24:00.461Z,16.13
2023-02-11T22:26:28.658Z,17.33
2023-02-11T22:28:56.841Z,15.32
2023-02-11T22:31:27.722Z,14.07
2023-02-11T22:33:56.398Z,14.50
2023-02-11T22:36:27.917Z,15.15
2023-02-11T22:39:00.252Z,15.00
2023-02-11T22:41:28.562Z,19.30
2023-02-11T22:43:56.424Z,21.15
2023-02-11T22:46:24.455Z,25.70
2023-02-11T22:48:53.948Z,21.50
2023-02-11T22:51:24.767Z,22.90
2023-02-11T22:53:53.887Z,27.67
2023-02-11T22:56:23.952Z,23.20
2023-02-11T22:58:52.417Z,24.00
2023-02-11T23:01:20.733Z,24.83
2023-02-11T23:03:48.964Z,31.02
2023-02-11T23:06:17.990Z,25.27
2023-02-11T23:08:46.474Z,28.92
2023-02-11T23:11:16.770Z,26.83
2023-02-11T23:13:47.656Z,33.08
2023-02-11T23:16:17.849Z,39.58
2023-02-11T23:18:47.793Z,29.35
2023-02-11T23:21:17.820Z,26.35
2023-02-11T23:23:48.201Z,24.42
2023-02-11T23:26:18.654Z,31.38
2023-02-11T23:28:48.285Z,26.00
2023-02-11T23:31:18.690Z,27.30
2023-02-11T23:33:48.432Z,28.70
2023-02-11T23:36:17.038Z,28.52
2023-02-11T23:38:45.221Z,22.35
2023-02-11T23:41:13.296Z,22.75
2023-02-11T23:43:41.273Z,22.60
2023-02-11T23:46:11.090Z,22.30
2023-02-11T23:48:40.668Z,25.08
2023-02-11T23:51:10.254Z,24.48
2023-02-11T23:53:38.511Z,21.25
2023-02-11T23:56:10.739Z,22.05
2023-02-11T23:58:38.880Z,27.65
